createdAt,value
2023-10-17T00:01:13.463Z,94.20
2023-10-17T00:04:11.390Z,94.50
2023-10-17T00:07:04.184Z,94.60
2023-10-17T00:09:56.351Z,94.50
2023-10-17T00:12:52.491Z,94.60
2023-10-17T00:15:42.160Z,94.50
2023-10-17T00:18:30.551Z,94.50
2023-10-17T00:21:24.465Z,94.50
2023-10-17T00:24:13.268Z,94.50
2023-10-17T00:27:01.792Z,94.50
2023-10-17T00:29:50.234Z,94.50
2023-10-17T00:32:43.131Z,94.60
2023-10-17T00:35:38.150Z,94.60
2023-10-17T00:38:31.772Z,94.70
2023-10-17T00:41:30.896Z,94.60
2023-10-17T00:44:29.367Z,94.60
2023-10-17T00:47:20.422Z,94.70
2023-10-17T00:50:14.659Z,94.70
2023-10-17T00:53:02.794Z,94.70
2023-10-17T00:55:56.964Z,94.70
2023-10-17T00:58:45.321Z,94.70
2023-10-17T01:01:33.509Z,94.70
2023-10-17T01:04:25.184Z,94.70
2023-10-17T01:07:25.724Z,94.70
2023-10-17T01:10:15.724Z,94.80
2023-10-17T01:13:05.291Z,94.80
2023-10-17T01:15:54.967Z,94.80
2023-10-17T01:18:46.311Z,94.80
2023-10-17T01:21:34.764Z,94.80
2023-10-17T01:24:24.465Z,94.90
2023-10-17T01:27:15.074Z,94.90
2023-10-17T01:30:03.581Z,95.00
2023-10-17T01:32:53.170Z,95.00
2023-10-17T01:35:42.626Z,95.10
2023-10-17T01:38:30.454Z,95.20
2023-10-17T01:41:21.234Z,95.20
2023-10-17T01:44:10.820Z,95.30
2023-10-17T01:46:58.959Z,95.80
2023-10-17T01:49:48.014Z,95.40
2023-10-17T01:52:36.979Z,95.40
2023-10-17T01:55:29.843Z,95.40
2023-10-17T01:58:21.360Z,95.40
2023-10-17T02:01:13.903Z,99.90
2023-10-17T02:04:05.597Z,99.90
2023-10-17T02:06:56.339Z,99.90
2023-10-17T02:09:47.948Z,97.60
2023-10-17T02:12:36.790Z,97.60
2023-10-17T02:15:27.065Z,97.60
2023-10-17T02:18:17.174Z,97.50
2023-10-17T02:21:07.498Z,97.60
2023-10-17T02:23:56.586Z,97.70
2023-10-17T02:26:56.738Z,97.70
2023-10-17T02:29:48.091Z,97.60
2023-10-17T02:32:46.614Z,97.60
2023-10-17T02:35:38.709Z,97.60
2023-10-17T02:38:27.049Z,97.60
2023-10-17T02:41:20.320Z,97.60
2023-10-17T02:44:10.409Z,97.60
2023-10-17T02:47:03.167Z,97.70
2023-10-17T02:49:53.442Z,97.70
2023-10-17T02:52:42.814Z,97.70
2023-10-17T02:55:31.774Z,97.80
2023-10-17T02:58:20.225Z,97.80
2023-10-17T03:01:09.201Z,97.80
2023-10-17T03:03:57.916Z,97.80
2023-10-17T03:06:50.589Z,97.70
2023-10-17T03:09:45.483Z,97.70
2023-10-17T03:12:42.227Z,97.70
2023-10-17T03:15:33.066Z,97.80
2023-10-17T03:18:21.307Z,97.80
2023-10-17T03:21:10.046Z,97.80
2023-10-17T03:24:11.221Z,97.80
2023-10-17T03:27:09.439Z,97.80
2023-10-17T03:29:59.693Z,97.90
2023-10-17T03:33:07.343Z,97.90
2023-10-17T03:36:06.993Z,97.90
2023-10-17T03:38:56.642Z,97.90
2023-10-17T03:41:46.839Z,98.00
2023-10-17T03:44:40.915Z,98.00
2023-10-17T03:47:31.724Z,98.10
2023-10-17T03:50:33.589Z,98.20
2023-10-17T03:53:26.960Z,98.30
2023-10-17T03:56:25.184Z,98.30
2023-10-17T03:59:32.760Z,98.20
2023-10-17T04:02:22.726Z,98.40
2023-10-17T04:05:18.975Z,98.40
2023-10-17T04:08:11.320Z,98.50
2023-10-17T04:11:13.442Z,98.60
2023-10-17T04:14:02.727Z,98.60
2023-10-17T04:16:52.918Z,98.70
2023-10-17T04:19:41.688Z,98.70
2023-10-17T04:22:31.259Z,98.70
2023-10-17T04:25:36.218Z,98.80
2023-10-17T04:28:27.817Z,98.70
2023-10-17T04:31:15.865Z,98.80
2023-10-17T04:34:08.594Z,98.90
2023-10-17T04:36:59.513Z,98.90
2023-10-17T04:39:52.352Z,98.90
2023-10-17T04:43:00.062Z,99.00
2023-10-17T04:45:50.629Z,99.00
2023-10-17T04:48:42.371Z,99.00
2023-10-17T04:51:33.521Z,99.00
2023-10-17T04:54:33.649Z,99.00
2023-10-17T04:57:23.616Z,99.00
2023-10-17T05:00:16.871Z,99.10
2023-10-17T05:03:16.264Z,99.10
2023-10-17T05:06:22.702Z,99.20
2023-10-17T05:09:48.160Z,99.30
2023-10-17T05:13:07.939Z,99.30
2023-10-17T05:16:13.786Z,99.30
2023-10-17T05:19:19.264Z,99.30
2023-10-17T05:22:24.296Z,99.30
2023-10-17T05:25:37.602Z,99.30
2023-10-17T05:28:51.808Z,99.30
2023-10-17T05:32:07.442Z,99.40
2023-10-17T05:35:13.102Z,99.50
2023-10-17T05:38:18.954Z,99.40
2023-10-17T05:41:25.743Z,99.40
2023-10-17T05:44:31.593Z,99.50
2023-10-17T05:47:37.321Z,99.40
2023-10-17T05:50:42.899Z,99.40
2023-10-17T05:53:48.138Z,99.40
2023-10-17T05:56:56.161Z,99.40
2023-10-17T06:00:01.838Z,99.40
2023-10-17T06:03:28.500Z,99.30
2023-10-17T06:06:34.559Z,99.30
2023-10-17T06:09:39.622Z,99.30
2023-10-17T06:12:47.564Z,99.30
2023-10-17T06:15:52.860Z,99.50
2023-10-17T06:18:44.156Z,99.40
2023-10-17T06:21:38.394Z,99.50
2023-10-17T06:24:40.328Z,99.40
2023-10-17T06:27:47.419Z,99.30
2023-10-17T06:30:49.427Z,99.20
2023-10-17T06:33:37.175Z,99.10
2023-10-17T06:36:30.461Z,99.30
2023-10-17T06:39:20.107Z,99.30
2023-10-17T06:42:16.367Z,99.20
2023-10-17T06:45:09.822Z,99.20
2023-10-17T06:48:01.073Z,99.10
2023-10-17T06:51:21.737Z,99.20
2023-10-17T06:54:15.106Z,99.30
2023-10-17T06:57:12.261Z,99.30
2023-10-17T07:00:06.424Z,99.10
2023-10-17T07:02:59.421Z,99.00
2023-10-17T07:05:51.724Z,99.00
2023-10-17T07:08:41.491Z,99.00
2023-10-17T07:11:31.664Z,99.00
2023-10-17T07:14:26.608Z,98.90
2023-10-17T07:17:27.612Z,98.60
2023-10-17T07:20:31.641Z,98.70
2023-10-17T07:23:21.313Z,98.70
2023-10-17T07:26:11.699Z,98.70
2023-10-17T07:29:01.701Z,98.70
2023-10-17T07:31:54.140Z,98.60
2023-10-17T07:34:45.807Z,98.50
2023-10-17T07:37:49.754Z,98.50
2023-10-17T07:41:00.084Z,98.40
2023-10-17T07:44:00.149Z,98.30
2023-10-17T07:46:50.200Z,98.30
2023-10-17T07:49:43.203Z,98.20
2023-10-17T07:52:32.653Z,98.10
2023-10-17T07:55:37.093Z,98.40
2023-10-17T07:58:41.198Z,98.00
2023-10-17T08:01:39.684Z,98.00
2023-10-17T08:04:32.276Z,98.20
2023-10-17T08:07:26.313Z,97.80
2023-10-17T08:10:20.501Z,97.70
2023-10-17T08:13:11.612Z,97.50
2023-10-17T08:16:08.564Z,97.40
2023-10-17T08:19:00.685Z,97.30
2023-10-17T08:21:51.567Z,97.10
2023-10-17T08:24:47.050Z,97.10
2023-10-17T08:27:47.909Z,97.20
2023-10-17T08:30:45.712Z,96.80
2023-10-17T08:33:42.450Z,96.60
2023-10-17T08:36:29.934Z,96.60
2023-10-17T08:39:53.991Z,96.40
2023-10-17T08:42:51.675Z,96.20
2023-10-17T08:45:46.299Z,96.30
2023-10-17T08:48:36.957Z,96.00
2023-10-17T08:51:29.342Z,95.80
2023-10-17T08:54:21.531Z,95.70
2023-10-17T08:57:11.238Z,95.30
2023-10-17T09:00:16.366Z,95.30
2023-10-17T09:03:12.241Z,95.00
2023-10-17T09:06:08.942Z,94.90
2023-10-17T09:09:16.201Z,95.10
2023-10-17T09:12:21.374Z,94.50
2023-10-17T09:15:29.056Z,94.30
2023-10-17T09:18:30.483Z,94.20
2023-10-17T09:21:22.573Z,94.20
2023-10-17T09:24:31.487Z,93.80
2023-10-17T09:27:21.471Z,93.70
2023-10-17T09:30:17.092Z,92.00
2023-10-17T09:33:10.815Z,91.70
2023-10-17T09:36:05.939Z,91.50
2023-10-17T09:38:56.829Z,91.40
2023-10-17T09:41:47.641Z,91.20
2023-10-17T09:44:37.739Z,91.20
2023-10-17T09:47:31.590Z,91.10
2023-10-17T09:50:23.539Z,91.20
2023-10-17T09:53:20.047Z,91.00
2023-10-17T09:56:12.637Z,90.90
2023-10-17T09:59:05.670Z,91.00
2023-10-17T10:01:55.406Z,91.10
2023-10-17T10:04:45.814Z,90.60
2023-10-17T10:07:36.857Z,90.60
2023-10-17T10:10:57.901Z,90.50
2023-10-17T10:14:07.941Z,90.10
2023-10-17T10:16:57.952Z,90.20
2023-10-17T10:20:10.438Z,90.00
2023-10-17T10:23:01.339Z,89.90
2023-10-17T10:26:26.354Z,88.90
2023-10-17T10:29:27.399Z,88.00
2023-10-17T10:32:35.019Z,87.70
2023-10-17T10:35:24.440Z,86.30
2023-10-17T10:38:13.108Z,86.30
2023-10-17T10:41:13.566Z,86.60
2023-10-17T10:44:03.419Z,85.80
2023-10-17T10:46:56.440Z,85.20
2023-10-17T10:49:52.208Z,84.70
2023-10-17T10:52:41.284Z,84.10
2023-10-17T10:55:32.237Z,83.00
2023-10-17T10:58:21.778Z,83.10
2023-10-17T11:01:11.043Z,81.50
2023-10-17T11:04:02.533Z,80.50
2023-10-17T11:06:53.160Z,78.80
2023-10-17T11:09:43.053Z,78.30
2023-10-17T11:12:37.580Z,78.60
2023-10-17T11:15:30.491Z,78.00
2023-10-17T11:18:22.141Z,77.60
2023-10-17T11:21:14.680Z,77.40
2023-10-17T11:24:08.313Z,78.20
2023-10-17T11:26:58.088Z,78.30
2023-10-17T11:29:47.157Z,77.60
2023-10-17T11:32:41.939Z,77.10
2023-10-17T11:35:32.369Z,77.60
2023-10-17T11:38:44.829Z,78.20
2023-10-17T11:41:40.796Z,78.30
2023-10-17T11:44:33.253Z,78.40
2023-10-17T11:47:24.815Z,78.90
2023-10-17T11:50:15.042Z,79.00
2023-10-17T11:53:16.410Z,79.40
2023-10-17T11:56:07.231Z,78.20
2023-10-17T11:58:58.108Z,78.00
2023-10-17T12:01:52.817Z,78.00
2023-10-17T12:04:43.622Z,78.00
2023-10-17T12:07:33.714Z,78.20
2023-10-17T12:10:26.556Z,78.00
2023-10-17T12:13:18.300Z,78.30
2023-10-17T12:16:10.632Z,78.20
2023-10-17T12:18:58.977Z,78.80
2023-10-17T12:21:49.620Z,78.40
2023-10-17T12:24:38.369Z,78.70
2023-10-17T12:27:28.006Z,78.30
2023-10-17T12:30:24.366Z,78.80
2023-10-17T12:33:12.656Z,79.00
2023-10-17T12:36:01.557Z,78.90
2023-10-17T12:38:50.818Z,79.00
2023-10-17T12:41:39.645Z,79.50
2023-10-17T12:44:29.382Z,79.40
2023-10-17T12:47:24.132Z,79.60
2023-10-17T12:50:13.427Z,80.10
2023-10-17T12:53:01.978Z,80.20
2023-10-17T12:55:50.423Z,80.50
2023-10-17T12:58:38.564Z,80.70
2023-10-17T13:01:27.305Z,80.70
2023-10-17T13:04:18.022Z,80.90
2023-10-17T13:07:08.431Z,81.00
2023-10-17T13:09:56.348Z,81.20
2023-10-17T13:12:44.949Z,82.00
2023-10-17T13:15:34.437Z,82.20
2023-10-17T13:18:24.257Z,81.90
2023-10-17T13:21:16.549Z,81.70
2023-10-17T13:24:11.194Z,82.00
2023-10-17T13:27:09.484Z,82.80
2023-10-17T13:30:09.310Z,83.00
2023-10-17T13:32:57.792Z,83.40
2023-10-17T13:35:45.986Z,83.30
2023-10-17T13:38:45.559Z,82.90
2023-10-17T13:41:34.346Z,82.70
2023-10-17T13:44:24.949Z,82.80
2023-10-17T13:47:13.290Z,83.30
2023-10-17T13:50:04.142Z,83.10
2023-10-17T13:52:55.842Z,82.90
2023-10-17T13:55:49.610Z,83.00
2023-10-17T13:58:39.903Z,82.50
2023-10-17T14:01:34.607Z,82.60
2023-10-17T14:04:24.599Z,82.50
2023-10-17T14:07:14.254Z,82.30
2023-10-17T14:10:11.029Z,82.30
2023-10-17T14:13:02.077Z,82.50
2023-10-17T14:15:53.690Z,82.90
2023-10-17T14:18:45.218Z,82.70
2023-10-17T14:21:38.139Z,82.50
2023-10-17T14:24:31.590Z,82.50
2023-10-17T14:27:22.342Z,82.70
2023-10-17T14:30:12.980Z,83.30
2023-10-17T14:33:02.187Z,83.20
2023-10-17T14:35:50.499Z,83.40
2023-10-17T14:38:39.370Z,83.70
2023-10-17T14:41:27.388Z,83.70
2023-10-17T14:44:17.180Z,83.80
2023-10-17T14:47:07.976Z,83.90
2023-10-17T14:49:56.341Z,83.80
2023-10-17T14:52:46.734Z,83.60
2023-10-17T14:55:36.907Z,83.70
2023-10-17T14:58:25.775Z,84.00
2023-10-17T15:01:14.693Z,84.00
2023-10-17T15:04:07.285Z,84.00
2023-10-17T15:06:57.196Z,84.60
2023-10-17T15:09:51.249Z,85.20
2023-10-17T15:12:41.269Z,84.50
2023-10-17T15:15:29.759Z,84.60
2023-10-17T15:18:19.682Z,84.40
2023-10-17T15:21:13.577Z,84.60
2023-10-17T15:24:02.793Z,85.10
2023-10-17T15:26:52.847Z,85.20
2023-10-17T15:29:41.221Z,85.40
2023-10-17T15:32:32.970Z,86.00
2023-10-17T15:35:21.487Z,85.90
2023-10-17T15:38:12.424Z,85.80
2023-10-17T15:41:01.879Z,85.90
2023-10-17T15:43:50.733Z,86.10
2023-10-17T15:46:38.987Z,86.90
2023-10-17T15:49:27.845Z,86.20
2023-10-17T15:52:16.491Z,86.30
2023-10-17T15:55:09.345Z,86.40
2023-10-17T15:57:57.936Z,86.50
2023-10-17T16:00:46.395Z,86.50
2023-10-17T16:03:35.278Z,86.60
2023-10-17T16:06:23.987Z,86.60
2023-10-17T16:09:17.850Z,86.80
2023-10-17T16:12:08.139Z,87.40
2023-10-17T16:14:56.733Z,87.60
2023-10-17T16:17:45.678Z,87.80
2023-10-17T16:20:34.410Z,88.30
2023-10-17T16:23:23.171Z,88.30
2023-10-17T16:26:15.716Z,88.40
2023-10-17T16:29:08.780Z,88.70
2023-10-17T16:32:00.922Z,88.90
2023-10-17T16:34:49.063Z,88.60
2023-10-17T16:37:38.458Z,89.00
2023-10-17T16:40:27.894Z,89.30
2023-10-17T16:43:16.036Z,89.30
2023-10-17T16:46:06.454Z,89.40
2023-10-17T16:48:55.659Z,89.80
2023-10-17T16:51:43.772Z,89.90
2023-10-17T16:54:32.716Z,90.00
2023-10-17T16:57:22.798Z,90.10
2023-10-17T17:00:15.555Z,90.20
2023-10-17T17:03:06.726Z,90.20
2023-10-17T17:05:55.099Z,90.30
2023-10-17T17:08:44.469Z,90.40
2023-10-17T17:11:34.058Z,90.40
2023-10-17T17:14:22.628Z,90.90
2023-10-17T17:17:11.760Z,90.60
2023-10-17T17:20:02.428Z,90.60
2023-10-17T17:22:54.397Z,90.80
2023-10-17T17:25:43.423Z,90.90
2023-10-17T17:28:33.237Z,90.90
2023-10-17T17:31:21.691Z,90.90
2023-10-17T17:34:11.254Z,91.00
2023-10-17T17:37:01.000Z,91.10
2023-10-17T17:39:51.370Z,91.10
2023-10-17T17:42:39.713Z,91.20
2023-10-17T17:45:28.187Z,91.40
2023-10-17T17:48:19.048Z,91.50
2023-10-17T17:51:08.008Z,91.70
2023-10-17T17:53:57.481Z,91.70
2023-10-17T17:56:46.535Z,91.80
2023-10-17T17:59:35.202Z,91.90
2023-10-17T18:02:24.768Z,92.00
2023-10-17T18:05:13.467Z,92.10
2023-10-17T18:08:02.069Z,92.20
2023-10-17T18:10:52.967Z,92.20
2023-10-17T18:13:41.619Z,92.30
2023-10-17T18:16:35.159Z,92.40
2023-10-17T18:19:25.108Z,92.40
2023-10-17T18:22:13.846Z,92.50
2023-10-17T18:25:57.287Z,92.60
2023-10-17T18:28:47.876Z,92.70
2023-10-17T18:31:40.636Z,92.80
2023-10-17T18:34:29.278Z,93.00
2023-10-17T18:37:17.936Z,93.10
2023-10-17T18:40:10.736Z,93.20
2023-10-17T18:43:01.269Z,93.30
2023-10-17T18:45:53.795Z,93.30
2023-10-17T18:48:43.430Z,93.40
2023-10-17T18:51:36.110Z,93.40
2023-10-17T18:54:25.568Z,93.50
2023-10-17T18:57:14.074Z,93.50
2023-10-17T19:00:05.605Z,93.60
2023-10-17T19:02:57.048Z,93.60
2023-10-17T19:05:45.168Z,93.60
2023-10-17T19:08:34.341Z,93.60
2023-10-17T19:11:24.728Z,93.70
2023-10-17T19:14:12.878Z,93.80
2023-10-17T19:17:03.706Z,93.80
2023-10-17T19:19:54.602Z,93.90
2023-10-17T19:22:45.787Z,93.90
2023-10-17T19:25:37.515Z,94.00
2023-10-17T19:28:26.174Z,94.00
2023-10-17T19:31:14.638Z,94.10
2023-10-17T19:34:04.119Z,94.20
2023-10-17T19:36:53.980Z,94.40
2023-10-17T19:39:42.473Z,94.30
2023-10-17T19:42:31.911Z,94.30
2023-10-17T19:45:21.780Z,94.40
2023-10-17T19:48:12.130Z,94.50
2023-10-17T19:51:00.556Z,94.60
2023-10-17T19:53:51.951Z,94.70
2023-10-17T19:56:40.339Z,94.80
2023-10-17T19:59:29.188Z,94.80
2023-10-17T20:02:18.625Z,94.80
2023-10-17T20:05:08.196Z,94.80
2023-10-17T20:07:56.970Z,94.90
2023-10-17T20:10:47.137Z,94.90
2023-10-17T20:13:36.018Z,95.00
2023-10-17T20:16:27.240Z,95.00
2023-10-17T20:19:18.896Z,95.10
2023-10-17T20:22:10.109Z,95.00
2023-10-17T20:24:59.756Z,95.10
2023-10-17T20:27:50.532Z,95.10
2023-10-17T20:30:43.988Z,95.10
2023-10-17T20:33:32.422Z,95.20
2023-10-17T20:36:21.323Z,95.30
2023-10-17T20:39:09.702Z,95.20
2023-10-17T20:41:59.872Z,95.20
2023-10-17T20:44:54.623Z,95.20
2023-10-17T20:47:47.166Z,95.30
2023-10-17T20:50:36.479Z,95.30
2023-10-17T20:53:27.900Z,95.30
2023-10-17T20:56:34.083Z,95.40
2023-10-17T20:59:29.494Z,95.50
2023-10-17T21:02:22.019Z,95.60
2023-10-17T21:05:10.578Z,95.70
2023-10-17T21:07:59.026Z,95.70
2023-10-17T21:10:48.513Z,95.70
2023-10-17T21:13:36.944Z,95.70
2023-10-17T21:16:25.151Z,95.80
2023-10-17T21:19:16.036Z,95.80
2023-10-17T21:22:05.310Z,95.80
2023-10-17T21:24:58.518Z,95.90
2023-10-17T21:27:48.013Z,95.90
2023-10-17T21:30:39.868Z,96.00
2023-10-17T21:33:33.362Z,96.00
2023-10-17T21:36:23.372Z,96.10
2023-10-17T21:39:17.199Z,96.10
2023-10-17T21:42:05.596Z,96.10
2023-10-17T21:44:55.294Z,96.20
2023-10-17T21:47:46.025Z,96.20
2023-10-17T21:50:35.867Z,96.30
2023-10-17T21:53:28.310Z,96.30
2023-10-17T21:56:17.114Z,96.30
2023-10-17T21:59:07.555Z,96.40
2023-10-17T22:01:58.153Z,96.40
2023-10-17T22:04:47.429Z,96.40
2023-10-17T22:07:36.287Z,96.50
2023-10-17T22:10:28.168Z,96.50
2023-10-17T22:13:18.630Z,96.50
2023-10-17T22:16:08.748Z,96.40
2023-10-17T22:18:57.571Z,96.40
2023-10-17T22:21:46.731Z,96.50
2023-10-17T22:24:48.619Z,96.50
2023-10-17T22:27:44.761Z,96.50
2023-10-17T22:30:34.415Z,96.60
2023-10-17T22:33:23.050Z,96.60
2023-10-17T22:36:13.445Z,96.70
2023-10-17T22:39:03.957Z,96.70
2023-10-17T22:41:55.288Z,96.70
2023-10-17T22:44:46.264Z,96.60
2023-10-17T22:47:34.862Z,96.60
2023-10-17T22:50:23.888Z,96.50
2023-10-17T22:53:12.330Z,96.50
2023-10-17T22:56:00.364Z,96.50
2023-10-17T22:58:48.832Z,96.60
2023-10-17T23:01:38.465Z,96.60
2023-10-17T23:04:26.847Z,96.60
2023-10-17T23:07:15.240Z,96.60
2023-10-17T23:10:07.877Z,96.70
2023-10-17T23:12:56.833Z,96.80
2023-10-17T23:15:45.283Z,96.80
2023-10-17T23:18:38.036Z,96.90
2023-10-17T23:21:26.261Z,96.90
2023-10-17T23:24:16.250Z,96.80
2023-10-17T23:27:04.494Z,96.80
2023-10-17T23:29:53.135Z,96.90
2023-10-17T23:32:41.716Z,96.90
2023-10-17T23:35:31.522Z,97.00
2023-10-17T23:38:19.915Z,97.00
2023-10-17T23:41:08.787Z,97.00
2023-10-17T23:43:57.020Z,97.10
2023-10-17T23:46:46.503Z,97.10
2023-10-17T23:49:34.839Z,97.20
2023-10-17T23:52:25.550Z,97.30
2023-10-17T23:55:16.101Z,97.40
2023-10-17T23:58:04.623Z,97.40
